Impacts METAR Board
IDs:

KLGA - New York/La Guardia, NY, US

Updated at: 1100 UTC 07 Jul 2020
Potential Impact None Slight Moderate High
Time 06/23Z 07/00Z 07/01Z 07/02Z 07/03Z 07/04Z 07/05Z 07/06Z 07/07Z 07/08Z 07/09Z 07/10Z 07/11Z
Temp77 77 76 75 74 74 74 74 73 73 73 74 73
Dewpt64 68 68 67 66 65 66 65 65 66 66 66 67
Altim30.06 30.06 30.08 30.10 30.11 30.11 30.12 30.11 30.10 30.09 30.10 30.11 30.12
VIS10 10 10 10 10 10 10 10 10 10 10 10 10
CIG250 250 14 14 15 15 17 19 23 250 12 24 37
CoverBKNBKNOVCBKNBKNBKNOVCOVCBKNBKNOVCBKNBKN
FltCatVFRVFRMVFRMVFRMVFRMVFRMVFRMVFRMVFRVFRMVFRMVFRVFR
WX--------------------------
WDir10010012013013012014010010080908050
WSpd6 8 7 8 11 9 7 8 8 7 5 7 7
WGst-- -- -- -- -- -- -- -- -- -- -- -- --
Raw hourly METARs
KLGA 062251Z 10006KT 10SM FEW060 SCT100 BKN250 25/18 A3006 RMK AO2 RAE37 TSE23 SLP180 P0001 T02500178
KLGA 062351Z 10008KT 10SM FEW060 SCT130 BKN250 25/20 A3006 RMK AO2 SLP177 60005 T02500200 10350 20239 56007
KLGA 070051Z 12007KT 10SM BKN014 BKN130 OVC250 24/20 A3008 RMK AO2 SLP185 T02440200
KLGA 070151Z 13008KT 10SM BKN014 BKN250 24/19 A3010 RMK AO2 SLP191 T02390194
KLGA 070251Z 13011KT 10SM BKN015 BKN250 23/19 A3011 RMK AO2 SLP195 T02330189 51017
KLGA 070351Z 12009KT 10SM BKN015 BKN250 23/18 A3011 RMK AO2 SLP196 T02330183
KLGA 070451Z 14007KT 10SM OVC017 23/19 A3012 RMK AO2 SLP200 T02330189 403560233
KLGA 070551Z 10008KT 10SM OVC019 23/18 A3011 RMK AO2 SLP197 T02330183 10250 20233 50003
KLGA 070651Z 10008KT 10SM SCT015 BKN023 BKN250 23/18 A3010 RMK AO2 SLP194 T02280183
KLGA 070751Z 08007KT 10SM SCT013 BKN250 23/19 A3009 RMK AO2 SLP190 T02280189
KLGA 070851Z 09005KT 10SM BKN012 OVC021 23/19 A3010 RMK AO2 SLP193 T02280189 55004
KLGA 070951Z 08007KT 10SM FEW012 BKN024 23/19 A3011 RMK AO2 SLP196 T02330189
KLGA 071051Z 05007KT 10SM SCT027 BKN037 23/19 A3012 RMK AO2 SLP198 T02280194



Page loaded:  11:34 UTC  |   04:34 AM Pacific  |   05:34 AM Mountain  |   06:34 AM Central  |   07:34 AM Eastern

 

ADVISORIES

FORECASTS

FORECASTS

OBSERVATIONS

USER TOOLS

ABOUT US